Briefing drone pour Nevers (LFQG)

Rechercher une autre localisation

Conditions de vol :


Nous sommes le : Jeudi 07 juillet 2022
Il est 08:15 UTC (10:15 LT)

Lever de soleil : 03:34 UTC (05:34 LT)
Coucher de soleil : 20:09 UTC (22:09 LT)

Météo

L'essentiel des conditions de vol

VIGILANCE MÉTÉO FRANCE - Nièvre (58)
Pas de vigilances particulieres
CARTES DES FRONTS
METAR de LFQG
LFQG 070800Z AUTO 34009KT 310V020 CAVOK 20/14 Q1026

Date d'émission: 07/07/2022
Heure d'émission: 08:00 UTC
Vent: 340° (variable du 310° au 020°) pour 9 KT (17 km/h)
Visibilité horizontale: > 10 km
Plafond : Plafond et visibilité OK (CAVOK)
Température: 20 °C
Point de rosée: 14 °C
Humidité: 68%
Pression (QNH): 1026 hPa
Prévision 24h pour Nevers
Vent : 16° pour 3 KT (9 km/h)
Temperature Maxi: 11 °C
Temperature Min: 11 °C
Humidité : 90%
Condition : Ciel dégagé



Warning: count(): Parameter must be an array or an object that implements Countable in /homepages/6/d509196549/htdocs/droneoxygene/briefing.php on line 743
WEBCAM POUR NEVERS

Réglementation

Voler en sécurité

CARTES AERONAUTIQUE 1/500.000
CARTES VAC (LFQG)
SUP AIP




Chargement des AIP...
NOTAM (NEVERS + Terrain à proximité / FIR )




Chargement des NOTAMS...
CONTACT PREFECTURE 58


Avertissement : Les données mises à disposition sont indicatives. Oxygène Drone ne pourra être tenu responsable de dégâts causés aux biens et aux personnes.